Terminal Aerodrome Forecast
Issued by NWS

Home | Current Version | Previous Version | Text Only | Print | Product List | Glossary On
Versions: 1 2 3 4 5 6 7 8 9 10 11 12 13 14 15 16 17 18 19 20 21
992
FTUS41 KGYX 291426 AAA
TAFHIE
TAF AMD
KHIE 291426Z 2914/3012 15009G16KT P6SM SCT030 OVC060
     FM291800 15007KT 5SM -SHRA BR OVC025
     FM300400 VRB03KT 4SM BR OVC015=

USA.gov is the U.S. government's official web portal to all federal, state and local government web resources and services.